sensor_id;sensor_type;location;lat;lon;timestamp;pressure;altitude;pressure_sealevel;temperature;humidity
6389;BME280;3227;42.654;23.360;2022-10-16T00:01:39;95080.19;;;11.24;85.07
6389;BME280;3227;42.654;23.360;2022-10-16T00:04:06;95075.84;;;11.14;85.82
6389;BME280;3227;42.654;23.360;2022-10-16T00:06:34;95085.16;;;11.00;86.15
6389;BME280;3227;42.654;23.360;2022-10-16T00:09:01;95082.56;;;10.94;86.36
6389;BME280;3227;42.654;23.360;2022-10-16T00:11:30;95084.25;;;10.96;86.03
6389;BME280;3227;42.654;23.360;2022-10-16T00:14:00;95084.28;;;10.95;86.64
6389;BME280;3227;42.654;23.360;2022-10-16T00:16:27;95080.84;;;10.94;86.50
6389;BME280;3227;42.654;23.360;2022-10-16T00:18:55;95086.78;;;10.90;86.64
6389;BME280;3227;42.654;23.360;2022-10-16T00:21:24;95075.56;;;10.79;86.41
6389;BME280;3227;42.654;23.360;2022-10-16T00:23:54;95085.88;;;10.82;86.48
6389;BME280;3227;42.654;23.360;2022-10-16T00:26:22;95080.75;;;10.82;86.80
6389;BME280;3227;42.654;23.360;2022-10-16T00:28:50;95096.13;;;10.84;86.56
6389;BME280;3227;42.654;23.360;2022-10-16T00:31:19;95060.94;;;10.64;86.62
6389;BME280;3227;42.654;23.360;2022-10-16T00:33:46;95088.41;;;10.81;86.58
6389;BME280;3227;42.654;23.360;2022-10-16T00:36:15;95094.41;;;10.81;86.91
6389;BME280;3227;42.654;23.360;2022-10-16T00:38:43;95097.81;;;10.80;87.15
6389;BME280;3227;42.654;23.360;2022-10-16T00:41:14;95097.81;;;10.77;86.89
6389;BME280;3227;42.654;23.360;2022-10-16T00:43:43;95068.66;;;10.66;86.45
6389;BME280;3227;42.654;23.360;2022-10-16T00:46:15;95094.41;;;10.78;86.51
6389;BME280;3227;42.654;23.360;2022-10-16T00:48:46;95043.72;;;10.48;86.41
6389;BME280;3227;42.654;23.360;2022-10-16T00:51:15;95092.63;;;10.74;85.85
6389;BME280;3227;42.654;23.360;2022-10-16T00:53:44;95087.47;;;10.68;85.72
6389;BME280;3227;42.654;23.360;2022-10-16T00:56:12;95080.56;;;10.62;85.80
6389;BME280;3227;42.654;23.360;2022-10-16T00:58:39;95084.78;;;10.54;85.07
6389;BME280;3227;42.654;23.360;2022-10-16T01:01:06;95092.47;;;10.54;85.28
6389;BME280;3227;42.654;23.360;2022-10-16T01:03:35;95105.28;;;10.54;85.47
6389;BME280;3227;42.654;23.360;2022-10-16T01:06:13;95020.25;;;10.03;85.37
6389;BME280;3227;42.654;23.360;2022-10-16T01:08:49;95112.03;;;10.46;85.70
6389;BME280;3227;42.654;23.360;2022-10-16T01:11:27;95107.69;;;10.39;86.85
6389;BME280;3227;42.654;23.360;2022-10-16T01:14:01;95069.84;;;10.14;85.94
6389;BME280;3227;42.654;23.360;2022-10-16T01:16:35;95105.97;;;10.35;86.55
6389;BME280;3227;42.654;23.360;2022-10-16T01:19:09;95069.00;;;10.15;86.21
6389;BME280;3227;42.654;23.360;2022-10-16T01:21:40;95048.38;;;10.00;86.66
6389;BME280;3227;42.654;23.360;2022-10-16T01:24:17;95095.66;;;10.29;87.62
6389;BME280;3227;42.654;23.360;2022-10-16T01:27:09;95090.47;;;10.24;88.17
6389;BME280;3227;42.654;23.360;2022-10-16T01:29:41;95093.88;;;10.20;88.54
6389;BME280;3227;42.654;23.360;2022-10-16T01:32:15;95086.09;;;10.16;88.59
6389;BME280;3227;42.654;23.360;2022-10-16T01:34:47;95081.78;;;10.13;88.53
6389;BME280;3227;42.654;23.360;2022-10-16T01:37:22;95084.34;;;10.12;89.41
6389;BME280;3227;42.654;23.360;2022-10-16T01:39:55;95084.31;;;10.09;89.03
6389;BME280;3227;42.654;23.360;2022-10-16T01:42:29;95006.19;;;9.64;88.79
6389;BME280;3227;42.654;23.360;2022-10-16T01:44:59;95082.53;;;10.02;88.86
6389;BME280;3227;42.654;23.360;2022-10-16T01:47:27;95074.72;;;9.91;89.58
6389;BME280;3227;42.654;23.360;2022-10-16T01:49:57;95058.41;;;9.80;88.91
6389;BME280;3227;42.654;23.360;2022-10-16T01:52:27;95072.22;;;9.94;88.60
6389;BME280;3227;42.654;23.360;2022-10-16T01:54:57;95103.88;;;10.05;88.67
6389;BME280;3227;42.654;23.360;2022-10-16T01:57:27;95101.34;;;10.07;88.67
6389;BME280;3227;42.654;23.360;2022-10-16T01:59:59;95099.72;;;10.12;88.13
6389;BME280;3227;42.654;23.360;2022-10-16T02:02:29;95099.72;;;10.12;87.85
6389;BME280;3227;42.654;23.360;2022-10-16T02:05:03;95100.47;;;10.03;88.13
6389;BME280;3227;42.654;23.360;2022-10-16T02:07:31;95095.28;;;9.99;88.41
6389;BME280;3227;42.654;23.360;2022-10-16T02:09:59;95104.66;;;9.97;89.29
6389;BME280;3227;42.654;23.360;2022-10-16T02:12:31;95102.03;;;9.90;88.63
6389;BME280;3227;42.654;23.360;2022-10-16T02:14:59;95111.38;;;9.87;89.42
6389;BME280;3227;42.654;23.360;2022-10-16T02:17:26;95114.72;;;9.80;89.92
6389;BME280;3227;42.654;23.360;2022-10-16T02:19:54;95108.72;;;9.78;89.90
6389;BME280;3227;42.654;23.360;2022-10-16T02:22:26;95124.00;;;9.75;89.22
6389;BME280;3227;42.654;23.360;2022-10-16T02:24:57;95121.41;;;9.72;89.55
6389;BME280;3227;42.654;23.360;2022-10-16T02:27:30;95120.59;;;9.71;89.64
6389;BME280;3227;42.654;23.360;2022-10-16T02:30:03;95097.44;;;9.62;90.09
6389;BME280;3227;42.654;23.360;2022-10-16T02:32:34;95117.22;;;9.77;89.98
6389;BME280;3227;42.654;23.360;2022-10-16T02:35:03;95080.31;;;9.58;89.75
6389;BME280;3227;42.654;23.360;2022-10-16T02:37:31;95111.22;;;9.75;89.77
6389;BME280;3227;42.654;23.360;2022-10-16T02:39:58;95121.63;;;9.87;89.28
6389;BME280;3227;42.654;23.360;2022-10-16T02:42:33;95125.91;;;9.91;88.29
6389;BME280;3227;42.654;23.360;2022-10-16T02:45:00;95115.59;;;9.83;87.61
6389;BME280;3227;42.654;23.360;2022-10-16T02:47:27;95108.72;;;9.79;87.86
6389;BME280;3227;42.654;23.360;2022-10-16T02:49:54;95129.28;;;9.88;87.65
6389;BME280;3227;42.654;23.360;2022-10-16T02:52:20;95128.44;;;9.86;88.20
6389;BME280;3227;42.654;23.360;2022-10-16T02:54:47;95129.28;;;9.85;87.78
6389;BME280;3227;42.654;23.360;2022-10-16T02:57:14;95141.19;;;9.83;88.51
6389;BME280;3227;42.654;23.360;2022-10-16T02:59:42;95138.59;;;9.82;88.07
6389;BME280;3227;42.654;23.360;2022-10-16T03:02:09;95149.69;;;9.79;87.81
6389;BME280;3227;42.654;23.360;2022-10-16T03:04:37;95137.69;;;9.75;87.92
6389;BME280;3227;42.654;23.360;2022-10-16T03:07:04;95145.41;;;9.78;87.93
6389;BME280;3227;42.654;23.360;2022-10-16T03:09:30;95142.81;;;9.77;87.81
6389;BME280;3227;42.654;23.360;2022-10-16T03:11:57;95142.75;;;9.74;88.15
6389;BME280;3227;42.654;23.360;2022-10-16T03:14:24;95141.84;;;9.67;87.41
6389;BME280;3227;42.654;23.360;2022-10-16T03:16:52;95138.38;;;9.65;87.01
6389;BME280;3227;42.654;23.360;2022-10-16T03:19:19;95158.03;;;9.66;86.70
6389;BME280;3227;42.654;23.360;2022-10-16T03:21:46;95161.34;;;9.59;86.34
6389;BME280;3227;42.654;23.360;2022-10-16T03:24:13;95153.59;;;9.53;86.92
6389;BME280;3227;42.654;23.360;2022-10-16T03:26:40;95155.31;;;9.55;88.99
6389;BME280;3227;42.654;23.360;2022-10-16T03:29:06;95148.25;;;9.39;89.64
6389;BME280;3227;42.654;23.360;2022-10-16T03:31:33;95144.78;;;9.34;88.86
6389;BME280;3227;42.654;23.360;2022-10-16T03:34:02;95158.59;;;9.45;90.10
6389;BME280;3227;42.654;23.360;2022-10-16T03:36:28;95156.84;;;9.43;89.65
6389;BME280;3227;42.654;23.360;2022-10-16T03:38:55;95156.06;;;9.47;88.79
6389;BME280;3227;42.654;23.360;2022-10-16T03:41:22;95162.84;;;9.45;88.65
6389;BME280;3227;42.654;23.360;2022-10-16T03:43:49;95160.31;;;9.45;88.52
6389;BME280;3227;42.654;23.360;2022-10-16T03:46:15;95166.19;;;9.41;88.42
6389;BME280;3227;42.654;23.360;2022-10-16T03:48:42;95161.88;;;9.37;88.72
6389;BME280;3227;42.654;23.360;2022-10-16T03:51:10;95160.06;;;9.28;89.27
6389;BME280;3227;42.654;23.360;2022-10-16T03:53:37;95156.56;;;9.25;88.72
6389;BME280;3227;42.654;23.360;2022-10-16T03:56:04;95155.69;;;9.21;88.87
6389;BME280;3227;42.654;23.360;2022-10-16T03:58:31;95151.41;;;9.20;89.07
6389;BME280;3227;42.654;23.360;2022-10-16T04:00:58;95150.53;;;9.18;89.55
6389;BME280;3227;42.654;23.360;2022-10-16T04:03:25;95153.13;;;9.23;89.72
6389;BME280;3227;42.654;23.360;2022-10-16T04:05:52;95158.25;;;9.23;89.53
6389;BME280;3227;42.654;23.360;2022-10-16T04:08:20;95151.44;;;9.22;89.67
6389;BME280;3227;42.654;23.360;2022-10-16T04:10:47;95147.19;;;9.22;89.70
6389;BME280;3227;42.654;23.360;2022-10-16T04:13:13;95151.44;;;9.22;89.41
6389;BME280;3227;42.654;23.360;2022-10-16T04:15:40;95116.88;;;8.89;89.85
6389;BME280;3227;42.654;23.360;2022-10-16T04:18:07;95159.00;;;9.15;89.06
6389;BME280;3227;42.654;23.360;2022-10-16T04:20:34;95133.16;;;8.96;89.32
6389;BME280;3227;42.654;23.360;2022-10-16T04:23:01;95102.22;;;8.79;89.90
6389;BME280;3227;42.654;23.360;2022-10-16T04:25:30;95152.03;;;9.07;89.72
6389;BME280;3227;42.654;23.360;2022-10-16T04:27:56;95164.03;;;9.09;89.86
6389;BME280;3227;42.654;23.360;2022-10-16T04:30:23;95161.50;;;9.11;89.91
6389;BME280;3227;42.654;23.360;2022-10-16T04:32:51;95161.53;;;9.12;90.33
6389;BME280;3227;42.654;23.360;2022-10-16T04:35:18;95173.44;;;9.12;90.02
6389;BME280;3227;42.654;23.360;2022-10-16T04:37:46;95161.53;;;9.12;89.98
6389;BME280;3227;42.654;23.360;2022-10-16T04:40:13;95171.78;;;9.14;90.06
6389;BME280;3227;42.654;23.360;2022-10-16T04:42:42;95171.78;;;9.15;90.19
6389;BME280;3227;42.654;23.360;2022-10-16T04:45:09;95176.06;;;9.16;90.20
6389;BME280;3227;42.654;23.360;2022-10-16T04:47:36;95181.19;;;9.18;90.21
6389;BME280;3227;42.654;23.360;2022-10-16T04:50:03;95182.06;;;9.19;90.50
6389;BME280;3227;42.654;23.360;2022-10-16T04:52:30;95179.56;;;9.23;89.17
6389;BME280;3227;42.654;23.360;2022-10-16T04:54:57;95170.91;;;9.13;89.45
6389;BME280;3227;42.654;23.360;2022-10-16T04:57:27;95178.69;;;9.23;88.70
6389;BME280;3227;42.654;23.360;2022-10-16T04:59:55;95189.06;;;9.32;88.67
6389;BME280;3227;42.654;23.360;2022-10-16T05:02:22;95194.44;;;9.47;87.65
6389;BME280;3227;42.654;23.360;2022-10-16T05:04:48;95203.31;;;9.73;86.85
6389;BME280;3227;42.654;23.360;2022-10-16T05:07:15;95184.66;;;9.82;84.74
6389;BME280;3227;42.654;23.360;2022-10-16T05:09:42;95202.28;;;10.22;83.92
6389;BME280;3227;42.654;23.360;2022-10-16T05:12:09;95193.13;;;10.43;82.16
6389;BME280;3227;42.654;23.360;2022-10-16T05:14:35;95196.75;;;10.63;80.50
6389;BME280;3227;42.654;23.360;2022-10-16T05:17:04;95209.00;;;10.90;80.04
6389;BME280;3227;42.654;23.360;2022-10-16T05:19:30;95204.97;;;11.18;79.04
6389;BME280;3227;42.654;23.360;2022-10-16T05:21:57;95213.78;;;11.53;77.77
6389;BME280;3227;42.654;23.360;2022-10-16T05:24:24;95223.47;;;11.88;76.01
6389;BME280;3227;42.654;23.360;2022-10-16T05:26:51;95221.03;;;12.13;74.32
6389;BME280;3227;42.654;23.360;2022-10-16T05:29:18;95217.75;;;12.43;72.12
6389;BME280;3227;42.654;23.360;2022-10-16T05:31:45;95221.22;;;12.62;69.80
6389;BME280;3227;42.654;23.360;2022-10-16T05:34:13;95218.69;;;12.77;69.45
6389;BME280;3227;42.654;23.360;2022-10-16T05:36:40;95222.19;;;13.01;68.66
6389;BME280;3227;42.654;23.360;2022-10-16T05:39:07;95212.78;;;13.21;67.94
6389;BME280;3227;42.654;23.360;2022-10-16T05:41:34;95219.66;;;13.46;66.21
6389;BME280;3227;42.654;23.360;2022-10-16T05:44:04;95145.91;;;13.16;65.23
6389;BME280;3227;42.654;23.360;2022-10-16T05:46:31;95223.91;;;13.84;65.37
6389;BME280;3227;42.654;23.360;2022-10-16T05:48:58;95224.75;;;14.07;64.06
6389;BME280;3227;42.654;23.360;2022-10-16T05:51:26;95226.41;;;14.17;63.60
6389;BME280;3227;42.654;23.360;2022-10-16T05:53:53;95240.13;;;14.27;62.66
6389;BME280;3227;42.654;23.360;2022-10-16T05:56:20;95241.00;;;14.27;63.02
6389;BME280;3227;42.654;23.360;2022-10-16T05:58:47;95226.41;;;14.23;62.42
6389;BME280;3227;42.654;23.360;2022-10-16T06:01:15;95247.00;;;14.48;62.33
6389;BME280;3227;42.654;23.360;2022-10-16T06:03:43;95245.25;;;14.50;61.95
6389;BME280;3227;42.654;23.360;2022-10-16T06:06:10;95256.41;;;14.55;61.54
6389;BME280;3227;42.654;23.360;2022-10-16T06:08:39;95228.09;;;14.49;62.16
6389;BME280;3227;42.654;23.360;2022-10-16T06:11:07;95257.25;;;14.63;61.12
6389;BME280;3227;42.654;23.360;2022-10-16T06:13:35;95259.84;;;14.51;61.34
6389;BME280;3227;42.654;23.360;2022-10-16T06:16:03;95264.16;;;14.52;61.40
6389;BME280;3227;42.654;23.360;2022-10-16T06:18:30;95265.91;;;14.46;62.57
6389;BME280;3227;42.654;23.360;2022-10-16T06:20:57;95247.00;;;14.35;62.94
6389;BME280;3227;42.654;23.360;2022-10-16T06:23:25;95225.50;;;14.33;62.70
6389;BME280;3227;42.654;23.360;2022-10-16T06:25:53;95272.69;;;14.70;61.42
6389;BME280;3227;42.654;23.360;2022-10-16T06:28:20;95265.84;;;14.59;61.13
6389;BME280;3227;42.654;23.360;2022-10-16T06:30:47;95283.03;;;14.61;62.06
6389;BME280;3227;42.654;23.360;2022-10-16T06:33:13;95252.13;;;14.54;61.69
6389;BME280;3227;42.654;23.360;2022-10-16T06:35:40;95274.34;;;14.87;61.64
6389;BME280;3227;42.654;23.360;2022-10-16T06:38:07;95212.53;;;14.61;61.23
6389;BME280;3227;42.654;23.360;2022-10-16T06:40:34;95251.06;;;14.96;61.42
6389;BME280;3227;42.654;23.360;2022-10-16T06:43:02;95282.69;;;15.31;60.60
6389;BME280;3227;42.654;23.360;2022-10-16T06:45:29;95289.59;;;15.24;58.98
6389;BME280;3227;42.654;23.360;2022-10-16T06:47:56;95288.84;;;15.12;59.78
6389;BME280;3227;42.654;23.360;2022-10-16T06:50:22;95290.63;;;14.96;60.58
6389;BME280;3227;42.654;23.360;2022-10-16T06:52:49;95289.00;;;14.75;60.48
6389;BME280;3227;42.654;23.360;2022-10-16T06:55:16;95299.34;;;14.71;62.03
6389;BME280;3227;42.654;23.360;2022-10-16T06:57:43;95242.63;;;14.62;61.43
6389;BME280;3227;42.654;23.360;2022-10-16T07:00:12;95304.38;;;15.03;61.08
6389;BME280;3227;42.654;23.360;2022-10-16T07:02:39;95234.78;;;14.83;60.43
6389;BME280;3227;42.654;23.360;2022-10-16T07:05:06;95233.00;;;14.94;59.59
6389;BME280;3227;42.654;23.360;2022-10-16T07:07:33;95309.25;;;15.48;59.85
6389;BME280;3227;42.654;23.360;2022-10-16T07:10:00;95306.72;;;15.42;59.74
6389;BME280;3227;42.654;23.360;2022-10-16T07:12:27;95307.69;;;15.26;60.45
6389;BME280;3227;42.654;23.360;2022-10-16T07:14:54;95313.00;;;14.96;60.85
6389;BME280;3227;42.654;23.360;2022-10-16T07:17:22;95300.25;;;14.64;61.65
6389;BME280;3227;42.654;23.360;2022-10-16T07:19:49;95305.41;;;14.65;62.13
6389;BME280;3227;42.654;23.360;2022-10-16T07:22:18;95308.75;;;14.90;62.34
6389;BME280;3227;42.654;23.360;2022-10-16T07:24:45;95322.50;;;14.86;63.01
6389;BME280;3227;42.654;23.360;2022-10-16T07:27:12;95302.75;;;14.79;63.55
6389;BME280;3227;42.654;23.360;2022-10-16T07:29:39;95321.59;;;14.95;63.69
6389;BME280;3227;42.654;23.360;2022-10-16T07:32:05;95324.16;;;15.02;62.72
6389;BME280;3227;42.654;23.360;2022-10-16T07:34:34;95317.38;;;14.81;62.17
6389;BME280;3227;42.654;23.360;2022-10-16T07:37:00;95325.06;;;14.94;62.85
6389;BME280;3227;42.654;23.360;2022-10-16T07:39:27;95325.91;;;14.93;63.56
6389;BME280;3227;42.654;23.360;2022-10-16T07:41:54;95323.22;;;15.17;62.62
6389;BME280;3227;42.654;23.360;2022-10-16T07:44:21;95311.13;;;15.28;62.46
6389;BME280;3227;42.654;23.360;2022-10-16T07:46:48;95282.75;;;15.19;61.65
6389;BME280;3227;42.654;23.360;2022-10-16T07:49:15;95314.66;;;15.15;61.07
6389;BME280;3227;42.654;23.360;2022-10-16T07:51:43;95325.00;;;15.06;62.07
6389;BME280;3227;42.654;23.360;2022-10-16T07:54:10;95306.94;;;15.01;62.77
6389;BME280;3227;42.654;23.360;2022-10-16T07:56:37;95328.50;;;14.97;62.59
6389;BME280;3227;42.654;23.360;2022-10-16T07:59:03;95314.72;;;14.98;62.81
6389;BME280;3227;42.654;23.360;2022-10-16T08:01:30;95318.09;;;15.12;61.61
6389;BME280;3227;42.654;23.360;2022-10-16T08:03:57;95317.16;;;15.26;62.05
6389;BME280;3227;42.654;23.360;2022-10-16T08:06:24;95325.66;;;15.43;60.92
6389;BME280;3227;42.654;23.360;2022-10-16T08:08:52;95288.63;;;15.41;60.85
6389;BME280;3227;42.654;23.360;2022-10-16T08:11:19;95327.25;;;15.70;59.12
6389;BME280;3227;42.654;23.360;2022-10-16T08:13:46;95331.59;;;15.60;59.76
6389;BME280;3227;42.654;23.360;2022-10-16T08:16:13;95335.13;;;15.44;60.04
6389;BME280;3227;42.654;23.360;2022-10-16T08:18:41;95294.75;;;15.26;61.29
6389;BME280;3227;42.654;23.360;2022-10-16T08:21:12;95303.25;;;15.48;60.68
6389;BME280;3227;42.654;23.360;2022-10-16T08:23:39;95329.91;;;15.53;60.70
6389;BME280;3227;42.654;23.360;2022-10-16T08:26:13;95332.50;;;15.56;60.18
6389;BME280;3227;42.654;23.360;2022-10-16T08:28:40;95312.66;;;15.58;59.84
6389;BME280;3227;42.654;23.360;2022-10-16T08:31:08;95320.28;;;15.76;58.58
6389;BME280;3227;42.654;23.360;2022-10-16T08:33:36;95321.16;;;15.74;59.61
6389;BME280;3227;42.654;23.360;2022-10-16T08:36:09;95320.28;;;15.76;58.96
6389;BME280;3227;42.654;23.360;2022-10-16T08:38:37;95334.00;;;15.89;58.15
6389;BME280;3227;42.654;23.360;2022-10-16T08:41:20;95325.38;;;15.87;57.20
6389;BME280;3227;42.654;23.360;2022-10-16T08:44:25;95326.25;;;15.86;57.62
6389;BME280;3227;42.654;23.360;2022-10-16T08:47:06;95323.53;;;16.03;55.84
6389;BME280;3227;42.654;23.360;2022-10-16T08:49:55;95330.28;;;16.19;54.32
6389;BME280;3227;42.654;23.360;2022-10-16T08:52:30;95333.81;;;16.12;55.70
6389;BME280;3227;42.654;23.360;2022-10-16T08:54:59;95334.66;;;16.14;54.13
6389;BME280;3227;42.654;23.360;2022-10-16T08:57:27;95333.22;;;15.78;55.77
6389;BME280;3227;42.654;23.360;2022-10-16T08:59:54;95337.50;;;15.79;55.56
6389;BME280;3227;42.654;23.360;2022-10-16T09:02:31;95334.81;;;15.94;56.52
6389;BME280;3227;42.654;23.360;2022-10-16T09:05:22;95340.63;;;16.17;56.48
6389;BME280;3227;42.654;23.360;2022-10-16T09:08:01;95337.19;;;16.18;51.01
6389;BME280;3227;42.654;23.360;2022-10-16T09:10:39;95335.44;;;16.20;52.48
6389;BME280;3227;42.654;23.360;2022-10-16T09:13:17;95343.00;;;16.42;51.73
6389;BME280;3227;42.654;23.360;2022-10-16T09:15:53;95331.72;;;16.47;49.84
6389;BME280;3227;42.654;23.360;2022-10-16T09:18:26;95267.38;;;16.18;49.84
6389;BME280;3227;42.654;23.360;2022-10-16T09:21:00;95306.09;;;16.26;50.63
6389;BME280;3227;42.654;23.360;2022-10-16T09:23:34;95335.22;;;16.43;50.76
6389;BME280;3227;42.654;23.360;2022-10-16T09:26:02;95306.88;;;16.31;48.38
6389;BME280;3227;42.654;23.360;2022-10-16T09:28:31;95330.06;;;16.43;49.69
6389;BME280;3227;42.654;23.360;2022-10-16T09:30:58;95323.94;;;16.50;49.19
6389;BME280;3227;42.654;23.360;2022-10-16T09:33:29;95335.28;;;16.39;49.16
6389;BME280;3227;42.654;23.360;2022-10-16T09:35:57;95330.22;;;16.26;49.34
6389;BME280;3227;42.654;23.360;2022-10-16T09:38:28;95288.28;;;15.92;48.90
6389;BME280;3227;42.654;23.360;2022-10-16T09:40:57;95289.16;;;15.91;48.98
6389;BME280;3227;42.654;23.360;2022-10-16T09:43:26;95291.72;;;15.94;49.48
6389;BME280;3227;42.654;23.360;2022-10-16T09:46:02;95329.38;;;16.24;48.88
6389;BME280;3227;42.654;23.360;2022-10-16T09:48:34;95322.53;;;16.17;47.24
6389;BME280;3227;42.654;23.360;2022-10-16T09:51:04;95314.13;;;15.94;47.87
6389;BME280;3227;42.654;23.360;2022-10-16T09:53:41;95312.38;;;15.97;47.78
6389;BME280;3227;42.654;23.360;2022-10-16T09:56:11;95314.00;;;16.08;47.99
6389;BME280;3227;42.654;23.360;2022-10-16T09:58:42;95310.47;;;16.15;47.82
6389;BME280;3227;42.654;23.360;2022-10-16T10:01:13;95284.97;;;15.80;47.67
6389;BME280;3227;42.654;23.360;2022-10-16T10:03:41;95298.81;;;15.68;47.22
6389;BME280;3227;42.654;23.360;2022-10-16T10:06:30;95309.00;;;15.88;48.45
6389;BME280;3227;42.654;23.360;2022-10-16T10:09:02;95304.66;;;15.91;48.74
6389;BME280;3227;42.654;23.360;2022-10-16T10:11:41;95259.06;;;15.83;48.38
6389;BME280;3227;42.654;23.360;2022-10-16T10:17:10;95294.53;;;16.57;47.10
6389;BME280;3227;42.654;23.360;2022-10-16T10:19:40;95270.56;;;16.43;45.70
6389;BME280;3227;42.654;23.360;2022-10-16T10:22:18;95305.75;;;16.62;45.58
6389;BME280;3227;42.654;23.360;2022-10-16T10:24:55;95284.19;;;16.56;44.04
6389;BME280;3227;42.654;23.360;2022-10-16T10:27:25;95297.91;;;16.67;44.29
6389;BME280;3227;42.654;23.360;2022-10-16T10:30:01;95278.22;;;16.52;43.84
6389;BME280;3227;42.654;23.360;2022-10-16T10:32:36;95302.34;;;16.54;45.04
6389;BME280;3227;42.654;23.360;2022-10-16T10:35:15;95293.72;;;16.55;45.35
6389;BME280;3227;42.654;23.360;2022-10-16T10:38:02;95290.88;;;16.80;44.84
6389;BME280;3227;42.654;23.360;2022-10-16T10:40:42;95289.84;;;16.93;44.24
6389;BME280;3227;42.654;23.360;2022-10-16T10:43:24;95279.28;;;17.09;43.78
6389;BME280;3227;42.654;23.360;2022-10-16T10:46:00;95252.44;;;17.15;43.04
6389;BME280;3227;42.654;23.360;2022-10-16T10:48:46;95280.69;;;17.30;42.95
6389;BME280;3227;42.654;23.360;2022-10-16T10:51:21;95282.81;;;17.04;43.82
6389;BME280;3227;42.654;23.360;2022-10-16T10:53:57;95276.00;;;16.95;44.05
6389;BME280;3227;42.654;23.360;2022-10-16T10:56:42;95270.72;;;17.04;43.83
6389;BME280;3227;42.654;23.360;2022-10-16T11:02:33;95221.31;;;17.20;41.07
6389;BME280;3227;42.654;23.360;2022-10-16T11:05:19;95257.84;;;17.57;40.85
6389;BME280;3227;42.654;23.360;2022-10-16T11:07:52;95233.91;;;17.42;39.47
6389;BME280;3227;42.654;23.360;2022-10-16T11:10:22;95258.06;;;17.44;40.14
6389;BME280;3227;42.654;23.360;2022-10-16T11:12:54;95246.09;;;17.37;38.27
6389;BME280;3227;42.654;23.360;2022-10-16T11:15:25;95253.94;;;17.30;38.06
6389;BME280;3227;42.654;23.360;2022-10-16T11:17:59;95259.78;;;17.45;38.66
6389;BME280;3227;42.654;23.360;2022-10-16T11:20:32;95251.88;;;17.53;39.01
6389;BME280;3227;42.654;23.360;2022-10-16T11:23:06;95251.78;;;17.62;37.98
6389;BME280;3227;42.654;23.360;2022-10-16T11:25:34;95227.94;;;17.37;38.49
6389;BME280;3227;42.654;23.360;2022-10-16T11:28:03;95234.88;;;17.37;38.57
6389;BME280;3227;42.654;23.360;2022-10-16T11:30:41;95205.41;;;17.41;39.05
6389;BME280;3227;42.654;23.360;2022-10-16T11:33:22;95244.53;;;17.81;38.80
6389;BME280;3227;42.654;23.360;2022-10-16T11:35:59;95238.47;;;17.82;38.83
6389;BME280;3227;42.654;23.360;2022-10-16T11:38:30;95228.25;;;17.73;38.99
6389;BME280;3227;42.654;23.360;2022-10-16T11:41:00;95249.53;;;17.93;39.67
6389;BME280;3227;42.654;23.360;2022-10-16T11:43:34;95228.00;;;17.88;39.13
6389;BME280;3227;42.654;23.360;2022-10-16T11:46:08;95251.13;;;18.02;39.56
6389;BME280;3227;42.654;23.360;2022-10-16T11:48:41;95239.00;;;18.02;38.49
6389;BME280;3227;42.654;23.360;2022-10-16T11:51:16;95258.81;;;18.06;38.99
6389;BME280;3227;42.654;23.360;2022-10-16T11:53:47;95246.13;;;17.88;38.65
6389;BME280;3227;42.654;23.360;2022-10-16T11:56:22;95252.28;;;17.84;39.07
6389;BME280;3227;42.654;23.360;2022-10-16T11:58:56;95252.28;;;17.82;40.00
6389;BME280;3227;42.654;23.360;2022-10-16T12:01:28;95250.53;;;17.86;40.65
6389;BME280;3227;42.654;23.360;2022-10-16T12:04:17;95241.06;;;17.83;38.14
6389;BME280;3227;42.654;23.360;2022-10-16T12:06:52;95251.44;;;17.82;37.72
6389;BME280;3227;42.654;23.360;2022-10-16T12:09:25;95246.94;;;17.93;38.80
6389;BME280;3227;42.654;23.360;2022-10-16T12:11:53;95248.22;;;17.68;39.33
6389;BME280;3227;42.654;23.360;2022-10-16T12:14:32;95251.56;;;17.74;39.83
6389;BME280;3227;42.654;23.360;2022-10-16T12:17:02;95246.22;;;17.83;38.49
6389;BME280;3227;42.654;23.360;2022-10-16T12:19:31;95244.22;;;18.01;38.43
6389;BME280;3227;42.654;23.360;2022-10-16T12:22:02;95230.38;;;18.02;40.10
6389;BME280;3227;42.654;23.360;2022-10-16T12:24:33;95241.25;;;18.20;39.49
6389;BME280;3227;42.654;23.360;2022-10-16T12:27:02;95201.69;;;18.09;39.20
6389;BME280;3227;42.654;23.360;2022-10-16T12:29:34;95237.56;;;18.34;39.63
6389;BME280;3227;42.654;23.360;2022-10-16T12:32:03;95252.00;;;18.47;39.79
6389;BME280;3227;42.654;23.360;2022-10-16T12:34:37;95236.34;;;18.51;38.01
6389;BME280;3227;42.654;23.360;2022-10-16T12:37:13;95249.53;;;18.41;37.70
6389;BME280;3227;42.654;23.360;2022-10-16T12:39:42;95231.69;;;18.24;37.17
6389;BME280;3227;42.654;23.360;2022-10-16T12:42:33;95243.59;;;18.34;37.04
6389;BME280;3227;42.654;23.360;2022-10-16T12:45:01;95239.91;;;18.46;37.57
6389;BME280;3227;42.654;23.360;2022-10-16T12:47:38;95237.91;;;18.61;38.13
6389;BME280;3227;42.654;23.360;2022-10-16T12:50:33;95241.44;;;18.59;39.08
6389;BME280;3227;42.654;23.360;2022-10-16T12:53:03;95197.69;;;18.38;39.64
6389;BME280;3227;42.654;23.360;2022-10-16T12:55:35;95244.03;;;18.56;39.62
6389;BME280;3227;42.654;23.360;2022-10-16T13:01:26;95243.66;;;18.31;40.10
6389;BME280;3227;42.654;23.360;2022-10-16T13:04:15;95257.56;;;18.27;40.01
6389;BME280;3227;42.654;23.360;2022-10-16T13:06:49;95261.34;;;18.11;39.45
6389;BME280;3227;42.654;23.360;2022-10-16T13:09:40;95258.66;;;18.15;38.86
6389;BME280;3227;42.654;23.360;2022-10-16T13:12:28;95253.41;;;18.18;39.05
6389;BME280;3227;42.654;23.360;2022-10-16T13:15:09;95231.31;;;17.96;39.20
6389;BME280;3227;42.654;23.360;2022-10-16T13:17:48;95255.88;;;18.26;39.12
6389;BME280;3227;42.654;23.360;2022-10-16T13:20:23;95257.22;;;18.45;39.17
6389;BME280;3227;42.654;23.360;2022-10-16T13:23:03;95244.06;;;18.54;39.05
6389;BME280;3227;42.654;23.360;2022-10-16T13:25:43;95255.00;;;18.72;39.03
6389;BME280;3227;42.654;23.360;2022-10-16T13:28:12;95255.28;;;18.58;39.21
6389;BME280;3227;42.654;23.360;2022-10-16T13:30:41;95254.41;;;18.56;39.27
6389;BME280;3227;42.654;23.360;2022-10-16T13:33:14;95253.69;;;18.49;37.99
6389;BME280;3227;42.654;23.360;2022-10-16T13:35:48;95250.09;;;18.58;38.44
6389;BME280;3227;42.654;23.360;2022-10-16T13:38:17;95267.41;;;18.57;37.91
6389;BME280;3227;42.654;23.360;2022-10-16T13:40:51;95265.53;;;18.64;38.38